Aérodrome :
LOGIN :

S'inscrire | Disclaimer

   EN    FR    IT 

 










Légende :    VFR   VFR Marginal   IFR   IFR Intensif   IFR Très Intensif
Visi : 
Plafond : 
>= 8 km
>= 3000ft
5 à 8 km
1000 à 3000 ft
1500m à 5 km
500 à 1000 ft
800 à 1500m
200 à 500 ft
< 800m
< 200 ft
Symboles :   Orages  Brouillard  Fortes neiges  Fortes précipitations  Vent > 20 kt
SIGMETs :   Divers  Orages  Givrage  Turbulence  Onde Orograph.  Cendres Volcan.







- Altitude de l'aérodrome : 364 ft
- Voir les cartes d'approche


LFAQ - Albert Bray

METARs EXPIRÉS :
  • 241430Z AUTO 26014KT CAVOK 24/12 Q1016 NOSIG
  • 241400Z AUTO 28014KT 250V310 9999 FEW048 OVC066 23/12 Q1016 NOSIG
  • 241330Z AUTO 27016KT 9999 BKN048 OVC066 25/12 Q1017 NOSIG
  • 241300Z AUTO 26014KT 9999 OVC044 23/13 Q1017 NOSIG
  • 241230Z AUTO 25013KT 9999 OVC044 23/11 Q1017 NOSIG
  • 241200Z AUTO 25013KT 9999 OVC040 23/12 Q1017 NOSIG

Prévision TAF périmée.
Pas de NOTAMs connus pour ce terrain.



MET'MAP, la Météo Aéronautique d'un coup d'oeil ! - Copyright ORBIFLY Décembre 2007 - Disclaimer

ORBIFLY MET'MAP TEAM :

Programmation & Développement : Alexandra Zaïnal
Conception & Développement : Baudouin d'Aumeries
Co-Programmation & Développement : Marc-Olivier Méhu
Soutien technique & logistique : Manuel Goepfert

Contact : metmap@orbifly.com




SOURCES & CREDITS :

   NOAA